Time;durP1;ratioP1;P1;durP2;ratioP2;P2;SDS_P1;SDS_P2;PMS_P1;PMS_P2;Temp;Humidity;BMP_temperature;BMP_pressure;BME280_temperature;BME280_humidity;BME280_pressure;Samples;Min_cycle;Max_cycle;Signal;HPM_P1;HPM_P2
2023/07/01 07:47:41;;;;;;;7.00;2.38;;;;;;;;;;6182920;23;20598;-79
2023/07/01 07:50:52;;;;;;;4.28;2.00;;;;;;;;;;6140039;23;20025;-79
2023/07/01 07:53:19;;;;;;;4.00;2.00;;;;;;;;;;6179780;23;20050;-80
2023/07/01 08:17:37;;;;;;;4.95;1.95;;;;;;;;;;6121291;23;20120;-77
2023/07/01 08:20:04;;;;;;;3.95;1.77;;;;;;;;;;6144852;23;20014;-80
2023/07/01 08:22:30;;;;;;;4.07;1.90;;;;;;;;;;6122147;23;20322;-80
2023/07/01 08:24:56;;;;;;;3.95;1.85;;;;;;;;;;6122003;23;20013;-81
2023/07/01 08:27:22;;;;;;;4.93;2.05;;;;;;;;;;6124105;23;20053;-82
2023/07/01 08:29:48;;;;;;;3.08;1.77;;;;;;;;;;6125476;23;20010;-82
2023/07/01 08:32:14;;;;;;;5.45;1.80;;;;;;;;;;6123637;23;20006;-83
2023/07/01 08:34:40;;;;;;;4.25;1.70;;;;;;;;;;6122912;23;20549;-84
2023/07/01 08:37:06;;;;;;;5.43;1.67;;;;;;;;;;6144860;23;20065;-84
2023/07/01 08:39:32;;;;;;;4.43;1.80;;;;;;;;;;6147773;23;20006;-84
2023/07/01 08:42:05;;;;;;;4.35;2.33;;;;;;;;;;6124783;23;20012;-83
2023/07/01 08:44:31;;;;;;;6.70;1.90;;;;;;;;;;6122488;23;20012;-87
2023/07/01 08:46:58;;;;;;;3.95;1.95;;;;;;;;;;6123975;23;20422;-84
2023/07/01 08:49:24;;;;;;;5.85;2.10;;;;;;;;;;6146581;23;20014;-80
2023/07/01 08:52:11;;;;;;;3.60;1.60;;;;;;;;;;6122058;23;20014;-78
2023/07/01 08:54:37;;;;;;;4.75;1.52;;;;;;;;;;6143976;23;20630;-85
2023/07/01 15:00:36;;;;;;;5.60;1.75;;;;;;;;;;6179586;22;20086;-82
2023/07/01 15:03:05;;;;;;;5.15;2.10;;;;;;;;;;6155637;23;20009;-80
2023/07/01 15:06:19;;;;;;;6.82;2.08;;;;;;;;;;6176077;23;20017;-81
2023/07/01 15:08:57;;;;;;;5.72;2.30;;;;;;;;;;6050152;23;20030;-83
2023/07/01 15:43:25;;;;;;;6.97;2.10;;;;;;;;;;6152320;22;20361;-82
2023/07/01 15:45:51;;;;;;;7.38;2.60;;;;;;;;;;6122352;23;20014;-83
2023/07/01 15:48:18;;;;;;;7.97;2.35;;;;;;;;;;6122799;23;20017;-84
2023/07/01 15:50:44;;;;;;;6.03;2.42;;;;;;;;;;6120472;23;20033;-85
2023/07/01 15:53:10;;;;;;;4.72;2.60;;;;;;;;;;6122989;23;20051;-87
2023/07/01 15:55:36;;;;;;;5.60;2.10;;;;;;;;;;6123487;23;20017;-83
2023/07/01 15:58:03;;;;;;;7.22;2.58;;;;;;;;;;6122699;23;20014;-85
2023/07/01 16:00:29;;;;;;;4.05;2.35;;;;;;;;;;6123879;23;20002;-85
2023/07/01 16:02:56;;;;;;;4.18;2.42;;;;;;;;;;6121903;23;20021;-84
2023/07/01 16:05:24;;;;;;;7.18;3.15;;;;;;;;;;6120040;23;20017;-84
2023/07/01 16:07:52;;;;;;;5.60;2.10;;;;;;;;;;6123209;23;20653;-82
2023/07/01 16:10:18;;;;;;;6.05;2.53;;;;;;;;;;6122713;23;20035;-81
2023/07/01 16:12:47;;;;;;;4.85;2.50;;;;;;;;;;6122496;23;20077;-80
2023/07/01 16:15:14;;;;;;;5.00;2.47;;;;;;;;;;6122083;23;20005;-80
2023/07/01 16:17:40;;;;;;;5.40;2.20;;;;;;;;;;6120525;23;20062;-81
2023/07/01 16:20:25;;;;;;;4.32;2.58;;;;;;;;;;6122029;23;20646;-85
2023/07/01 16:22:51;;;;;;;6.47;2.78;;;;;;;;;;6122980;23;20021;-83
2023/07/01 16:25:17;;;;;;;5.55;2.53;;;;;;;;;;6121910;23;20002;-82
2023/07/01 16:27:43;;;;;;;5.47;2.47;;;;;;;;;;6123387;23;20014;-84
2023/07/01 16:30:13;;;;;;;4.38;2.60;;;;;;;;;;6123235;23;20405;-84
2023/07/01 16:32:39;;;;;;;4.00;2.30;;;;;;;;;;6124852;23;20014;-83
2023/07/01 16:35:06;;;;;;;6.45;2.53;;;;;;;;;;6127042;23;20581;-84
2023/07/01 16:37:34;;;;;;;5.55;2.50;;;;;;;;;;6126707;23;20014;-83
2023/07/01 16:40:00;;;;;;;9.85;2.58;;;;;;;;;;6125887;23;19998;-83
2023/07/01 16:42:34;;;;;;;5.40;2.50;;;;;;;;;;6124597;23;20021;-82
2023/07/01 16:45:00;;;;;;;4.55;1.98;;;;;;;;;;6122500;23;20022;-83
2023/07/01 16:47:26;;;;;;;7.35;2.53;;;;;;;;;;6125857;23;20477;-83
2023/07/01 16:49:56;;;;;;;8.15;2.72;;;;;;;;;;6126327;23;20002;-82
2023/07/01 16:52:26;;;;;;;5.30;2.40;;;;;;;;;;6125008;23;20010;-82
2023/07/01 16:54:52;;;;;;;4.28;2.03;;;;;;;;;;6122506;23;20049;-83
2023/07/01 16:57:18;;;;;;;5.95;2.40;;;;;;;;;;6121021;23;20026;-84
2023/07/01 16:59:47;;;;;;;3.70;2.13;;;;;;;;;;6125801;23;20022;-84
2023/07/01 17:02:22;;;;;;;5.35;2.35;;;;;;;;;;6124678;23;20006;-82
2023/07/01 17:04:48;;;;;;;5.28;2.78;;;;;;;;;;6122437;23;20435;-83
2023/07/01 17:07:14;;;;;;;5.93;3.00;;;;;;;;;;6125812;23;20081;-83
2023/07/01 17:09:49;;;;;;;6.03;2.75;;;;;;;;;;6123988;23;20017;-84
2023/07/01 17:12:24;;;;;;;5.78;2.28;;;;;;;;;;6125655;23;20010;-83
2023/07/01 17:14:50;;;;;;;5.57;2.22;;;;;;;;;;6125523;23;20014;-81
2023/07/01 17:17:16;;;;;;;6.65;2.60;;;;;;;;;;6123380;23;20010;-83
2023/07/01 17:19:42;;;;;;;5.90;2.65;;;;;;;;;;6121980;23;20093;-81
2023/07/01 17:22:11;;;;;;;6.95;3.05;;;;;;;;;;6124364;23;20050;-82
2023/07/01 17:27:24;;;;;;;4.70;2.72;;;;;;;;;;6156130;23;20017;-80
2023/07/01 17:29:50;;;;;;;4.25;2.33;;;;;;;;;;6127168;23;20010;-79
2023/07/01 17:32:17;;;;;;;5.90;2.40;;;;;;;;;;6128392;23;20009;-79
2023/07/01 17:34:43;;;;;;;7.95;3.28;;;;;;;;;;6153450;23;20016;-80
2023/07/01 17:37:09;;;;;;;7.18;3.13;;;;;;;;;;6155932;23;20680;-81
2023/07/01 17:39:35;;;;;;;5.97;2.17;;;;;;;;;;6155925;23;20005;-82
2023/07/01 17:42:01;;;;;;;4.72;2.67;;;;;;;;;;6126955;23;20011;-82
2023/07/01 17:44:27;;;;;;;4.70;2.58;;;;;;;;;;6153607;23;20017;-82
2023/07/01 17:46:53;;;;;;;4.53;2.38;;;;;;;;;;6156791;23;20002;-82
2023/07/01 17:49:19;;;;;;;6.32;2.80;;;;;;;;;;6155513;23;20017;-82
2023/07/01 17:51:45;;;;;;;8.38;2.90;;;;;;;;;;6157224;23;20005;-81
2023/07/01 17:54:11;;;;;;;7.07;3.28;;;;;;;;;;6156744;23;20017;-81
2023/07/01 17:56:37;;;;;;;4.53;2.67;;;;;;;;;;6152164;23;20013;-80
2023/07/01 17:59:03;;;;;;;6.10;3.15;;;;;;;;;;6150574;23;20338;-80
2023/07/01 18:01:30;;;;;;;6.72;3.00;;;;;;;;;;6151117;23;20013;-80
2023/07/01 18:03:56;;;;;;;6.07;3.05;;;;;;;;;;6151725;23;20017;-79
2023/07/01 18:06:23;;;;;;;6.22;4.05;;;;;;;;;;6152893;23;20101;-79
2023/07/01 18:08:49;;;;;;;7.05;3.13;;;;;;;;;;6150755;23;20017;-79
2023/07/01 18:11:15;;;;;;;5.03;3.10;;;;;;;;;;6150643;23;20009;-79
2023/07/01 18:13:41;;;;;;;6.93;3.17;;;;;;;;;;6151763;23;20738;-78
2023/07/01 18:16:07;;;;;;;5.82;3.50;;;;;;;;;;6151002;23;20089;-79
2023/07/01 18:18:35;;;;;;;5.80;3.28;;;;;;;;;;6150751;23;20060;-79
2023/07/01 18:21:01;;;;;;;5.60;3.20;;;;;;;;;;6150758;23;20394;-79
2023/07/01 18:23:27;;;;;;;7.55;3.00;;;;;;;;;;6152113;23;20028;-80
2023/07/01 18:25:53;;;;;;;6.60;2.42;;;;;;;;;;6150357;23;20010;-80
2023/07/01 18:28:19;;;;;;;5.90;3.08;;;;;;;;;;6151144;23;20013;-80
2023/07/01 18:30:45;;;;;;;6.32;2.58;;;;;;;;;;6150917;23;20017;-79
2023/07/01 18:33:11;;;;;;;7.75;2.65;;;;;;;;;;6150014;23;20024;-79
2023/07/01 18:35:37;;;;;;;6.05;3.10;;;;;;;;;;6150953;23;20330;-80
2023/07/01 18:38:03;;;;;;;6.13;2.92;;;;;;;;;;6152659;23;20013;-80
2023/07/01 18:40:29;;;;;;;6.13;3.20;;;;;;;;;;6152388;23;20013;-80
2023/07/01 18:42:55;;;;;;;8.30;3.28;;;;;;;;;;6150319;23;20013;-79
2023/07/01 18:45:21;;;;;;;6.55;2.40;;;;;;;;;;6152100;23;20853;-80
2023/07/01 18:47:47;;;;;;;5.72;2.42;;;;;;;;;;6149867;23;20020;-80
2023/07/01 18:50:13;;;;;;;7.82;2.67;;;;;;;;;;6150278;23;20018;-79
2023/07/01 18:58:22;;;;;;;10.95;3.33;;;;;;;;;;6152272;23;20024;-83
2023/07/01 19:00:48;;;;;;;4.97;2.92;;;;;;;;;;6153552;23;20016;-82
2023/07/01 19:03:15;;;;;;;4.85;2.88;;;;;;;;;;6153112;23;20492;-80
